sensor_id;sensor_type;location;lat;lon;timestamp;P1;durP1;ratioP1;P2;durP2;ratioP2
68680;SDS011;55836;49.858;6.756;2023-08-07T00:01:50;3.13;;;2.20;;
68680;SDS011;55836;49.858;6.756;2023-08-07T00:04:16;5.73;;;2.60;;
68680;SDS011;55836;49.858;6.756;2023-08-07T00:06:42;8.33;;;2.47;;
68680;SDS011;55836;49.858;6.756;2023-08-07T00:09:08;5.07;;;2.80;;
68680;SDS011;55836;49.858;6.756;2023-08-07T00:11:34;6.13;;;2.63;;
68680;SDS011;55836;49.858;6.756;2023-08-07T00:14:00;8.73;;;3.00;;
68680;SDS011;55836;49.858;6.756;2023-08-07T00:16:26;7.33;;;2.80;;
68680;SDS011;55836;49.858;6.756;2023-08-07T00:18:52;7.73;;;2.90;;
68680;SDS011;55836;49.858;6.756;2023-08-07T00:21:21;7.57;;;2.87;;
68680;SDS011;55836;49.858;6.756;2023-08-07T00:23:47;10.97;;;2.80;;
68680;SDS011;55836;49.858;6.756;2023-08-07T00:26:14;9.53;;;2.63;;
68680;SDS011;55836;49.858;6.756;2023-08-07T00:28:40;8.17;;;2.60;;
68680;SDS011;55836;49.858;6.756;2023-08-07T00:31:07;8.17;;;2.73;;
68680;SDS011;55836;49.858;6.756;2023-08-07T00:33:33;6.57;;;2.53;;
68680;SDS011;55836;49.858;6.756;2023-08-07T00:36:01;6.13;;;2.53;;
68680;SDS011;55836;49.858;6.756;2023-08-07T00:38:27;6.13;;;2.37;;
68680;SDS011;55836;49.858;6.756;2023-08-07T00:40:53;7.60;;;2.37;;
68680;SDS011;55836;49.858;6.756;2023-08-07T00:43:19;8.80;;;2.90;;
68680;SDS011;55836;49.858;6.756;2023-08-07T00:45:46;7.50;;;2.40;;
68680;SDS011;55836;49.858;6.756;2023-08-07T00:48:12;6.43;;;2.27;;
68680;SDS011;55836;49.858;6.756;2023-08-07T00:50:39;8.57;;;2.93;;
68680;SDS011;55836;49.858;6.756;2023-08-07T00:53:05;9.90;;;2.37;;
68680;SDS011;55836;49.858;6.756;2023-08-07T00:55:32;9.77;;;2.93;;
68680;SDS011;55836;49.858;6.756;2023-08-07T00:57:58;9.13;;;2.90;;
68680;SDS011;55836;49.858;6.756;2023-08-07T01:00:28;6.50;;;2.50;;
68680;SDS011;55836;49.858;6.756;2023-08-07T01:02:55;4.70;;;2.27;;
68680;SDS011;55836;49.858;6.756;2023-08-07T01:05:23;7.50;;;2.50;;
68680;SDS011;55836;49.858;6.756;2023-08-07T01:07:50;9.17;;;2.43;;
68680;SDS011;55836;49.858;6.756;2023-08-07T01:10:20;5.87;;;2.40;;
68680;SDS011;55836;49.858;6.756;2023-08-07T01:12:48;8.10;;;2.47;;
68680;SDS011;55836;49.858;6.756;2023-08-07T01:15:21;7.90;;;2.40;;
68680;SDS011;55836;49.858;6.756;2023-08-07T01:17:48;7.00;;;2.60;;
68680;SDS011;55836;49.858;6.756;2023-08-07T01:20:15;7.47;;;2.40;;
68680;SDS011;55836;49.858;6.756;2023-08-07T01:22:41;8.77;;;2.87;;
68680;SDS011;55836;49.858;6.756;2023-08-07T01:25:07;8.73;;;3.17;;
68680;SDS011;55836;49.858;6.756;2023-08-07T01:27:37;11.27;;;2.57;;
68680;SDS011;55836;49.858;6.756;2023-08-07T01:30:08;5.67;;;2.40;;
68680;SDS011;55836;49.858;6.756;2023-08-07T01:32:43;4.20;;;2.37;;
68680;SDS011;55836;49.858;6.756;2023-08-07T01:35:11;7.57;;;2.33;;
68680;SDS011;55836;49.858;6.756;2023-08-07T01:37:39;7.20;;;2.20;;
68680;SDS011;55836;49.858;6.756;2023-08-07T01:40:06;8.57;;;2.93;;
68680;SDS011;55836;49.858;6.756;2023-08-07T01:42:33;10.70;;;2.80;;
68680;SDS011;55836;49.858;6.756;2023-08-07T01:45:00;6.23;;;2.63;;
68680;SDS011;55836;49.858;6.756;2023-08-07T01:47:26;5.07;;;2.30;;
68680;SDS011;55836;49.858;6.756;2023-08-07T01:49:52;4.93;;;2.37;;
68680;SDS011;55836;49.858;6.756;2023-08-07T01:52:18;8.00;;;2.87;;
68680;SDS011;55836;49.858;6.756;2023-08-07T01:54:45;6.70;;;2.30;;
68680;SDS011;55836;49.858;6.756;2023-08-07T01:57:11;11.87;;;3.10;;
68680;SDS011;55836;49.858;6.756;2023-08-07T01:59:37;8.07;;;2.97;;
68680;SDS011;55836;49.858;6.756;2023-08-07T02:02:03;4.23;;;2.40;;
68680;SDS011;55836;49.858;6.756;2023-08-07T02:04:29;8.33;;;2.57;;
68680;SDS011;55836;49.858;6.756;2023-08-07T02:06:57;7.47;;;2.60;;
68680;SDS011;55836;49.858;6.756;2023-08-07T02:09:23;6.23;;;2.43;;
68680;SDS011;55836;49.858;6.756;2023-08-07T02:11:49;5.83;;;2.57;;
68680;SDS011;55836;49.858;6.756;2023-08-07T02:14:15;6.70;;;2.73;;
68680;SDS011;55836;49.858;6.756;2023-08-07T02:16:41;7.00;;;3.20;;
68680;SDS011;55836;49.858;6.756;2023-08-07T02:19:07;9.27;;;2.43;;
68680;SDS011;55836;49.858;6.756;2023-08-07T02:21:33;5.73;;;2.83;;
68680;SDS011;55836;49.858;6.756;2023-08-07T02:23:59;6.10;;;3.30;;
68680;SDS011;55836;49.858;6.756;2023-08-07T02:26:25;6.40;;;2.27;;
68680;SDS011;55836;49.858;6.756;2023-08-07T02:28:51;6.70;;;2.50;;
68680;SDS011;55836;49.858;6.756;2023-08-07T02:31:17;7.60;;;3.13;;
68680;SDS011;55836;49.858;6.756;2023-08-07T02:33:43;4.37;;;2.50;;
68680;SDS011;55836;49.858;6.756;2023-08-07T02:36:09;10.23;;;2.93;;
68680;SDS011;55836;49.858;6.756;2023-08-07T02:38:35;7.10;;;2.40;;
68680;SDS011;55836;49.858;6.756;2023-08-07T02:41:01;9.80;;;2.73;;
68680;SDS011;55836;49.858;6.756;2023-08-07T02:43:28;9.10;;;2.87;;
68680;SDS011;55836;49.858;6.756;2023-08-07T02:45:54;7.50;;;2.83;;
68680;SDS011;55836;49.858;6.756;2023-08-07T02:48:20;8.93;;;3.00;;
68680;SDS011;55836;49.858;6.756;2023-08-07T02:50:46;4.87;;;2.70;;
68680;SDS011;55836;49.858;6.756;2023-08-07T02:53:12;6.73;;;2.63;;
68680;SDS011;55836;49.858;6.756;2023-08-07T02:55:38;6.83;;;2.33;;
68680;SDS011;55836;49.858;6.756;2023-08-07T02:58:04;4.50;;;2.70;;
68680;SDS011;55836;49.858;6.756;2023-08-07T03:00:30;6.40;;;2.40;;
68680;SDS011;55836;49.858;6.756;2023-08-07T03:02:56;8.20;;;2.70;;
68680;SDS011;55836;49.858;6.756;2023-08-07T03:05:22;11.90;;;2.70;;
68680;SDS011;55836;49.858;6.756;2023-08-07T03:07:48;5.13;;;2.77;;
68680;SDS011;55836;49.858;6.756;2023-08-07T03:10:14;5.67;;;2.23;;
68680;SDS011;55836;49.858;6.756;2023-08-07T03:12:40;3.27;;;2.43;;
68680;SDS011;55836;49.858;6.756;2023-08-07T03:15:06;7.10;;;2.97;;
68680;SDS011;55836;49.858;6.756;2023-08-07T03:17:33;6.23;;;2.60;;
68680;SDS011;55836;49.858;6.756;2023-08-07T03:19:59;5.03;;;2.40;;
68680;SDS011;55836;49.858;6.756;2023-08-07T03:22:25;4.80;;;2.50;;
68680;SDS011;55836;49.858;6.756;2023-08-07T03:24:51;4.83;;;2.40;;
68680;SDS011;55836;49.858;6.756;2023-08-07T03:27:17;3.13;;;2.17;;
68680;SDS011;55836;49.858;6.756;2023-08-07T03:29:43;3.77;;;2.40;;
68680;SDS011;55836;49.858;6.756;2023-08-07T03:32:09;9.27;;;3.20;;
68680;SDS011;55836;49.858;6.756;2023-08-07T03:34:37;5.90;;;2.37;;
68680;SDS011;55836;49.858;6.756;2023-08-07T03:37:03;6.33;;;2.40;;
68680;SDS011;55836;49.858;6.756;2023-08-07T03:39:29;5.60;;;2.60;;
68680;SDS011;55836;49.858;6.756;2023-08-07T03:41:55;8.53;;;2.73;;
68680;SDS011;55836;49.858;6.756;2023-08-07T03:44:21;9.10;;;2.87;;
68680;SDS011;55836;49.858;6.756;2023-08-07T03:46:47;5.60;;;2.10;;
68680;SDS011;55836;49.858;6.756;2023-08-07T03:49:13;8.47;;;2.97;;
68680;SDS011;55836;49.858;6.756;2023-08-07T03:51:39;6.20;;;3.03;;
68680;SDS011;55836;49.858;6.756;2023-08-07T03:54:05;6.13;;;2.30;;
68680;SDS011;55836;49.858;6.756;2023-08-07T03:56:31;5.23;;;2.50;;
68680;SDS011;55836;49.858;6.756;2023-08-07T03:59:01;5.80;;;2.70;;
68680;SDS011;55836;49.858;6.756;2023-08-07T04:01:27;5.57;;;2.43;;
68680;SDS011;55836;49.858;6.756;2023-08-07T04:03:53;5.17;;;2.50;;
68680;SDS011;55836;49.858;6.756;2023-08-07T04:06:22;9.50;;;3.03;;
68680;SDS011;55836;49.858;6.756;2023-08-07T04:08:48;8.77;;;2.57;;
68680;SDS011;55836;49.858;6.756;2023-08-07T04:11:14;7.10;;;3.20;;
68680;SDS011;55836;49.858;6.756;2023-08-07T04:13:40;3.17;;;2.33;;
68680;SDS011;55836;49.858;6.756;2023-08-07T04:16:06;6.03;;;2.77;;
68680;SDS011;55836;49.858;6.756;2023-08-07T04:18:32;6.97;;;2.60;;
68680;SDS011;55836;49.858;6.756;2023-08-07T04:20:59;5.87;;;2.60;;
68680;SDS011;55836;49.858;6.756;2023-08-07T04:23:25;4.03;;;2.90;;
68680;SDS011;55836;49.858;6.756;2023-08-07T04:25:51;3.07;;;2.27;;
68680;SDS011;55836;49.858;6.756;2023-08-07T04:28:18;8.50;;;2.80;;
68680;SDS011;55836;49.858;6.756;2023-08-07T04:30:44;5.43;;;2.70;;
68680;SDS011;55836;49.858;6.756;2023-08-07T04:33:10;4.87;;;2.80;;
68680;SDS011;55836;49.858;6.756;2023-08-07T04:35:37;3.73;;;2.67;;
68680;SDS011;55836;49.858;6.756;2023-08-07T04:38:06;6.27;;;2.57;;
68680;SDS011;55836;49.858;6.756;2023-08-07T04:40:32;6.33;;;2.77;;
68680;SDS011;55836;49.858;6.756;2023-08-07T04:42:58;6.30;;;2.80;;
68680;SDS011;55836;49.858;6.756;2023-08-07T04:45:24;10.17;;;2.97;;
68680;SDS011;55836;49.858;6.756;2023-08-07T04:47:50;7.20;;;2.73;;
68680;SDS011;55836;49.858;6.756;2023-08-07T04:50:16;3.70;;;2.90;;
68680;SDS011;55836;49.858;6.756;2023-08-07T04:52:42;5.27;;;2.57;;
68680;SDS011;55836;49.858;6.756;2023-08-07T04:55:09;5.07;;;2.43;;
68680;SDS011;55836;49.858;6.756;2023-08-07T04:57:35;6.70;;;2.57;;
68680;SDS011;55836;49.858;6.756;2023-08-07T05:00:01;7.33;;;2.70;;
68680;SDS011;55836;49.858;6.756;2023-08-07T05:02:27;4.70;;;2.70;;
68680;SDS011;55836;49.858;6.756;2023-08-07T05:04:56;7.07;;;2.30;;
68680;SDS011;55836;49.858;6.756;2023-08-07T05:07:22;7.47;;;3.50;;
68680;SDS011;55836;49.858;6.756;2023-08-07T05:09:48;6.77;;;2.30;;
68680;SDS011;55836;49.858;6.756;2023-08-07T05:12:15;8.53;;;2.70;;
68680;SDS011;55836;49.858;6.756;2023-08-07T05:14:41;3.80;;;2.30;;
68680;SDS011;55836;49.858;6.756;2023-08-07T05:17:10;4.37;;;3.67;;
68680;SDS011;55836;49.858;6.756;2023-08-07T05:19:38;3.87;;;2.50;;
68680;SDS011;55836;49.858;6.756;2023-08-07T05:22:04;5.90;;;2.80;;
68680;SDS011;55836;49.858;6.756;2023-08-07T05:24:30;5.70;;;2.87;;
68680;SDS011;55836;49.858;6.756;2023-08-07T05:27:03;9.27;;;3.53;;
68680;SDS011;55836;49.858;6.756;2023-08-07T05:29:29;3.80;;;2.37;;
68680;SDS011;55836;49.858;6.756;2023-08-07T05:31:55;6.43;;;2.53;;
68680;SDS011;55836;49.858;6.756;2023-08-07T05:34:21;6.30;;;2.40;;
68680;SDS011;55836;49.858;6.756;2023-08-07T05:36:47;3.67;;;2.37;;
68680;SDS011;55836;49.858;6.756;2023-08-07T05:39:14;5.43;;;2.37;;
68680;SDS011;55836;49.858;6.756;2023-08-07T05:41:40;3.57;;;2.47;;
68680;SDS011;55836;49.858;6.756;2023-08-07T05:44:06;5.23;;;2.90;;
68680;SDS011;55836;49.858;6.756;2023-08-07T05:46:32;4.97;;;2.40;;
68680;SDS011;55836;49.858;6.756;2023-08-07T05:48:58;6.37;;;2.30;;
68680;SDS011;55836;49.858;6.756;2023-08-07T05:51:24;3.50;;;2.77;;
68680;SDS011;55836;49.858;6.756;2023-08-07T05:53:50;3.90;;;2.50;;
68680;SDS011;55836;49.858;6.756;2023-08-07T05:56:16;6.20;;;2.60;;
68680;SDS011;55836;49.858;6.756;2023-08-07T05:58:43;4.53;;;2.20;;
68680;SDS011;55836;49.858;6.756;2023-08-07T06:01:09;4.63;;;2.60;;
68680;SDS011;55836;49.858;6.756;2023-08-07T06:03:35;5.47;;;2.90;;
68680;SDS011;55836;49.858;6.756;2023-08-07T06:06:01;3.47;;;2.60;;
68680;SDS011;55836;49.858;6.756;2023-08-07T06:08:27;5.77;;;2.37;;
68680;SDS011;55836;49.858;6.756;2023-08-07T06:10:53;5.00;;;2.40;;
68680;SDS011;55836;49.858;6.756;2023-08-07T06:13:19;4.23;;;2.50;;
68680;SDS011;55836;49.858;6.756;2023-08-07T06:15:45;5.37;;;2.37;;
68680;SDS011;55836;49.858;6.756;2023-08-07T06:18:11;4.20;;;2.47;;
68680;SDS011;55836;49.858;6.756;2023-08-07T06:20:37;5.50;;;3.13;;
68680;SDS011;55836;49.858;6.756;2023-08-07T06:23:03;4.33;;;2.47;;
68680;SDS011;55836;49.858;6.756;2023-08-07T06:25:29;6.53;;;2.30;;
68680;SDS011;55836;49.858;6.756;2023-08-07T06:27:55;4.30;;;2.57;;
68680;SDS011;55836;49.858;6.756;2023-08-07T06:30:21;6.33;;;2.80;;
68680;SDS011;55836;49.858;6.756;2023-08-07T06:32:47;6.57;;;2.70;;
68680;SDS011;55836;49.858;6.756;2023-08-07T06:35:13;3.47;;;2.30;;
68680;SDS011;55836;49.858;6.756;2023-08-07T06:37:39;4.37;;;2.87;;
68680;SDS011;55836;49.858;6.756;2023-08-07T06:40:06;4.17;;;2.40;;
68680;SDS011;55836;49.858;6.756;2023-08-07T06:42:32;4.37;;;2.40;;
68680;SDS011;55836;49.858;6.756;2023-08-07T06:44:58;2.83;;;2.03;;
68680;SDS011;55836;49.858;6.756;2023-08-07T06:47:26;3.93;;;2.50;;
68680;SDS011;55836;49.858;6.756;2023-08-07T06:49:55;4.17;;;2.73;;
68680;SDS011;55836;49.858;6.756;2023-08-07T06:52:21;10.30;;;2.50;;
68680;SDS011;55836;49.858;6.756;2023-08-07T06:54:47;5.53;;;3.10;;
68680;SDS011;55836;49.858;6.756;2023-08-07T06:57:13;5.73;;;2.77;;
68680;SDS011;55836;49.858;6.756;2023-08-07T06:59:40;6.83;;;2.53;;
68680;SDS011;55836;49.858;6.756;2023-08-07T07:02:06;5.47;;;2.20;;
68680;SDS011;55836;49.858;6.756;2023-08-07T07:04:32;5.87;;;2.37;;
68680;SDS011;55836;49.858;6.756;2023-08-07T07:06:58;2.90;;;2.23;;
68680;SDS011;55836;49.858;6.756;2023-08-07T07:09:24;3.10;;;2.30;;
68680;SDS011;55836;49.858;6.756;2023-08-07T07:11:53;4.17;;;2.30;;
68680;SDS011;55836;49.858;6.756;2023-08-07T07:14:19;4.87;;;2.30;;
68680;SDS011;55836;49.858;6.756;2023-08-07T07:16:45;4.13;;;2.37;;
68680;SDS011;55836;49.858;6.756;2023-08-07T07:19:11;3.80;;;2.10;;
68680;SDS011;55836;49.858;6.756;2023-08-07T07:21:37;4.20;;;2.33;;
68680;SDS011;55836;49.858;6.756;2023-08-07T07:24:03;4.87;;;2.40;;
68680;SDS011;55836;49.858;6.756;2023-08-07T07:26:30;2.80;;;2.07;;
68680;SDS011;55836;49.858;6.756;2023-08-07T07:28:56;5.00;;;2.43;;
68680;SDS011;55836;49.858;6.756;2023-08-07T07:31:22;7.10;;;2.30;;
68680;SDS011;55836;49.858;6.756;2023-08-07T07:33:48;6.50;;;2.77;;
68680;SDS011;55836;49.858;6.756;2023-08-07T07:36:17;4.47;;;2.50;;
68680;SDS011;55836;49.858;6.756;2023-08-07T07:38:46;3.57;;;1.97;;
68680;SDS011;55836;49.858;6.756;2023-08-07T07:41:13;7.43;;;2.43;;
68680;SDS011;55836;49.858;6.756;2023-08-07T07:43:39;5.30;;;2.33;;
68680;SDS011;55836;49.858;6.756;2023-08-07T07:46:05;4.13;;;2.00;;
68680;SDS011;55836;49.858;6.756;2023-08-07T07:48:31;3.17;;;2.20;;
68680;SDS011;55836;49.858;6.756;2023-08-07T07:51:00;5.77;;;2.40;;
68680;SDS011;55836;49.858;6.756;2023-08-07T07:53:26;4.10;;;2.00;;
68680;SDS011;55836;49.858;6.756;2023-08-07T07:55:53;5.03;;;2.30;;
68680;SDS011;55836;49.858;6.756;2023-08-07T07:58:19;4.20;;;2.43;;
68680;SDS011;55836;49.858;6.756;2023-08-07T08:00:46;4.97;;;2.50;;
68680;SDS011;55836;49.858;6.756;2023-08-07T08:03:12;4.63;;;2.40;;
68680;SDS011;55836;49.858;6.756;2023-08-07T08:05:38;5.03;;;2.33;;
68680;SDS011;55836;49.858;6.756;2023-08-07T08:08:07;6.00;;;2.30;;
68680;SDS011;55836;49.858;6.756;2023-08-07T08:10:33;4.53;;;1.93;;
68680;SDS011;55836;49.858;6.756;2023-08-07T08:12:59;7.20;;;2.50;;
68680;SDS011;55836;49.858;6.756;2023-08-07T08:15:25;5.43;;;2.10;;
68680;SDS011;55836;49.858;6.756;2023-08-07T08:17:51;5.53;;;2.10;;
68680;SDS011;55836;49.858;6.756;2023-08-07T08:20:17;3.77;;;2.33;;
68680;SDS011;55836;49.858;6.756;2023-08-07T08:22:44;6.50;;;2.70;;
68680;SDS011;55836;49.858;6.756;2023-08-07T08:25:10;4.07;;;2.20;;
68680;SDS011;55836;49.858;6.756;2023-08-07T08:27:40;4.10;;;2.00;;
68680;SDS011;55836;49.858;6.756;2023-08-07T08:30:06;4.87;;;2.40;;
68680;SDS011;55836;49.858;6.756;2023-08-07T08:32:32;3.73;;;2.20;;
68680;SDS011;55836;49.858;6.756;2023-08-07T08:34:58;2.87;;;2.07;;
68680;SDS011;55836;49.858;6.756;2023-08-07T08:37:24;3.63;;;1.60;;
68680;SDS011;55836;49.858;6.756;2023-08-07T08:39:50;3.73;;;2.20;;
68680;SDS011;55836;49.858;6.756;2023-08-07T08:42:16;3.37;;;2.03;;
68680;SDS011;55836;49.858;6.756;2023-08-07T08:45:01;5.40;;;2.33;;
68680;SDS011;55836;49.858;6.756;2023-08-07T08:47:28;3.57;;;1.50;;
68680;SDS011;55836;49.858;6.756;2023-08-07T08:50:03;3.67;;;1.77;;
68680;SDS011;55836;49.858;6.756;2023-08-07T08:52:31;8.90;;;2.73;;
68680;SDS011;55836;49.858;6.756;2023-08-07T08:54:57;6.67;;;2.13;;
68680;SDS011;55836;49.858;6.756;2023-08-07T08:57:27;3.33;;;1.93;;
68680;SDS011;55836;49.858;6.756;2023-08-07T08:59:53;5.93;;;1.83;;
68680;SDS011;55836;49.858;6.756;2023-08-07T09:02:20;2.63;;;1.77;;
68680;SDS011;55836;49.858;6.756;2023-08-07T09:04:46;3.23;;;1.60;;
68680;SDS011;55836;49.858;6.756;2023-08-07T09:07:13;3.83;;;1.90;;
68680;SDS011;55836;49.858;6.756;2023-08-07T09:09:40;3.43;;;1.90;;
68680;SDS011;55836;49.858;6.756;2023-08-07T09:12:20;3.10;;;2.10;;
68680;SDS011;55836;49.858;6.756;2023-08-07T09:14:49;2.37;;;1.60;;
68680;SDS011;55836;49.858;6.756;2023-08-07T09:17:18;2.50;;;1.90;;
68680;SDS011;55836;49.858;6.756;2023-08-07T09:19:45;4.13;;;1.90;;
68680;SDS011;55836;49.858;6.756;2023-08-07T09:22:11;4.10;;;1.70;;
68680;SDS011;55836;49.858;6.756;2023-08-07T09:24:40;2.57;;;1.70;;
68680;SDS011;55836;49.858;6.756;2023-08-07T09:27:07;2.27;;;1.70;;
68680;SDS011;55836;49.858;6.756;2023-08-07T09:29:33;3.33;;;1.80;;
68680;SDS011;55836;49.858;6.756;2023-08-07T09:32:06;4.53;;;1.70;;
68680;SDS011;55836;49.858;6.756;2023-08-07T09:34:33;3.13;;;1.70;;
68680;SDS011;55836;49.858;6.756;2023-08-07T09:36:59;3.50;;;1.67;;
68680;SDS011;55836;49.858;6.756;2023-08-07T09:39:25;4.03;;;1.63;;
68680;SDS011;55836;49.858;6.756;2023-08-07T09:41:52;3.53;;;1.80;;
68680;SDS011;55836;49.858;6.756;2023-08-07T09:44:18;3.17;;;1.53;;
68680;SDS011;55836;49.858;6.756;2023-08-07T09:46:44;2.17;;;1.50;;
68680;SDS011;55836;49.858;6.756;2023-08-07T09:49:10;3.40;;;1.50;;
68680;SDS011;55836;49.858;6.756;2023-08-07T09:54:08;2.77;;;1.80;;
68680;SDS011;55836;49.858;6.756;2023-08-07T09:56:35;4.97;;;1.90;;
68680;SDS011;55836;49.858;6.756;2023-08-07T09:59:01;3.53;;;1.80;;
68680;SDS011;55836;49.858;6.756;2023-08-07T10:01:27;4.60;;;2.00;;
68680;SDS011;55836;49.858;6.756;2023-08-07T10:03:53;2.50;;;1.70;;
68680;SDS011;55836;49.858;6.756;2023-08-07T10:06:20;2.87;;;1.90;;
68680;SDS011;55836;49.858;6.756;2023-08-07T10:08:46;3.27;;;1.40;;
68680;SDS011;55836;49.858;6.756;2023-08-07T10:11:12;2.47;;;1.73;;
68680;SDS011;55836;49.858;6.756;2023-08-07T10:13:39;4.50;;;1.83;;
68680;SDS011;55836;49.858;6.756;2023-08-07T10:16:06;2.43;;;1.70;;
68680;SDS011;55836;49.858;6.756;2023-08-07T10:18:33;5.03;;;1.93;;
68680;SDS011;55836;49.858;6.756;2023-08-07T10:21:00;4.07;;;1.97;;
68680;SDS011;55836;49.858;6.756;2023-08-07T10:23:26;2.50;;;1.90;;
68680;SDS011;55836;49.858;6.756;2023-08-07T10:25:52;1.93;;;1.67;;
68680;SDS011;55836;49.858;6.756;2023-08-07T10:28:19;3.47;;;1.83;;
68680;SDS011;55836;49.858;6.756;2023-08-07T10:30:45;3.23;;;2.23;;
68680;SDS011;55836;49.858;6.756;2023-08-07T10:33:13;4.13;;;1.97;;
68680;SDS011;55836;49.858;6.756;2023-08-07T10:35:44;1.70;;;1.50;;
68680;SDS011;55836;49.858;6.756;2023-08-07T10:38:12;2.80;;;1.70;;
68680;SDS011;55836;49.858;6.756;2023-08-07T10:43:23;3.40;;;2.00;;
68680;SDS011;55836;49.858;6.756;2023-08-07T10:45:49;3.00;;;1.60;;
68680;SDS011;55836;49.858;6.756;2023-08-07T10:48:19;2.10;;;1.60;;
68680;SDS011;55836;49.858;6.756;2023-08-07T10:53:20;3.73;;;1.77;;
68680;SDS011;55836;49.858;6.756;2023-08-07T10:55:47;6.73;;;2.20;;
68680;SDS011;55836;49.858;6.756;2023-08-07T10:58:25;2.50;;;1.63;;
68680;SDS011;55836;49.858;6.756;2023-08-07T11:03:40;3.50;;;1.60;;
68680;SDS011;55836;49.858;6.756;2023-08-07T11:06:06;3.30;;;1.73;;
68680;SDS011;55836;49.858;6.756;2023-08-07T11:08:32;4.83;;;2.57;;
68680;SDS011;55836;49.858;6.756;2023-08-07T11:10:59;5.27;;;1.80;;
68680;SDS011;55836;49.858;6.756;2023-08-07T11:13:29;2.10;;;1.80;;
68680;SDS011;55836;49.858;6.756;2023-08-07T11:15:56;3.33;;;1.80;;
68680;SDS011;55836;49.858;6.756;2023-08-07T11:18:22;2.23;;;2.00;;
68680;SDS011;55836;49.858;6.756;2023-08-07T11:20:48;3.10;;;2.10;;
68680;SDS011;55836;49.858;6.756;2023-08-07T11:23:14;2.20;;;1.80;;
68680;SDS011;55836;49.858;6.756;2023-08-07T11:25:41;1.97;;;1.43;;
68680;SDS011;55836;49.858;6.756;2023-08-07T11:28:07;3.20;;;2.17;;
68680;SDS011;55836;49.858;6.756;2023-08-07T11:30:33;2.10;;;1.80;;
68680;SDS011;55836;49.858;6.756;2023-08-07T11:33:01;2.20;;;1.70;;
68680;SDS011;55836;49.858;6.756;2023-08-07T11:35:27;4.80;;;2.00;;
68680;SDS011;55836;49.858;6.756;2023-08-07T11:37:53;3.97;;;2.00;;
68680;SDS011;55836;49.858;6.756;2023-08-07T11:40:21;3.07;;;1.80;;
68680;SDS011;55836;49.858;6.756;2023-08-07T11:42:47;4.73;;;1.83;;
68680;SDS011;55836;49.858;6.756;2023-08-07T11:45:13;2.83;;;1.90;;
68680;SDS011;55836;49.858;6.756;2023-08-07T11:47:40;5.40;;;1.50;;
68680;SDS011;55836;49.858;6.756;2023-08-07T11:50:07;2.10;;;1.90;;
68680;SDS011;55836;49.858;6.756;2023-08-07T11:52:33;2.53;;;1.70;;
68680;SDS011;55836;49.858;6.756;2023-08-07T11:55:01;1.90;;;1.57;;
68680;SDS011;55836;49.858;6.756;2023-08-07T11:57:29;2.50;;;2.03;;
68680;SDS011;55836;49.858;6.756;2023-08-07T11:59:55;3.93;;;1.97;;
68680;SDS011;55836;49.858;6.756;2023-08-07T12:02:24;3.37;;;1.93;;
68680;SDS011;55836;49.858;6.756;2023-08-07T12:04:50;2.60;;;1.83;;
68680;SDS011;55836;49.858;6.756;2023-08-07T12:07:19;3.23;;;1.73;;
68680;SDS011;55836;49.858;6.756;2023-08-07T12:09:51;3.07;;;1.90;;
68680;SDS011;55836;49.858;6.756;2023-08-07T12:12:19;4.63;;;1.90;;
68680;SDS011;55836;49.858;6.756;2023-08-07T12:14:45;3.23;;;1.90;;
68680;SDS011;55836;49.858;6.756;2023-08-07T12:17:11;3.07;;;1.70;;
68680;SDS011;55836;49.858;6.756;2023-08-07T12:19:38;2.37;;;1.97;;
68680;SDS011;55836;49.858;6.756;2023-08-07T12:22:06;3.37;;;1.70;;
68680;SDS011;55836;49.858;6.756;2023-08-07T12:24:34;3.50;;;1.80;;
68680;SDS011;55836;49.858;6.756;2023-08-07T12:27:00;2.70;;;2.00;;
68680;SDS011;55836;49.858;6.756;2023-08-07T12:29:27;2.57;;;1.93;;
68680;SDS011;55836;49.858;6.756;2023-08-07T12:31:54;2.00;;;1.63;;
68680;SDS011;55836;49.858;6.756;2023-08-07T12:34:20;3.23;;;1.63;;
68680;SDS011;55836;49.858;6.756;2023-08-07T12:36:46;2.23;;;1.60;;
68680;SDS011;55836;49.858;6.756;2023-08-07T12:39:12;1.77;;;1.63;;
68680;SDS011;55836;49.858;6.756;2023-08-07T12:41:41;2.40;;;1.80;;
68680;SDS011;55836;49.858;6.756;2023-08-07T12:44:07;3.13;;;1.60;;
68680;SDS011;55836;49.858;6.756;2023-08-07T12:46:33;3.73;;;1.60;;
68680;SDS011;55836;49.858;6.756;2023-08-07T12:49:01;3.20;;;1.77;;
68680;SDS011;55836;49.858;6.756;2023-08-07T12:51:27;2.67;;;1.93;;
68680;SDS011;55836;49.858;6.756;2023-08-07T12:53:53;3.90;;;1.87;;
68680;SDS011;55836;49.858;6.756;2023-08-07T12:56:19;1.40;;;1.30;;
68680;SDS011;55836;49.858;6.756;2023-08-07T12:58:45;3.57;;;1.70;;
68680;SDS011;55836;49.858;6.756;2023-08-07T13:01:11;1.93;;;1.50;;
68680;SDS011;55836;49.858;6.756;2023-08-07T13:03:38;2.83;;;2.00;;
68680;SDS011;55836;49.858;6.756;2023-08-07T13:06:04;4.27;;;1.77;;
68680;SDS011;55836;49.858;6.756;2023-08-07T13:08:32;1.97;;;1.63;;
68680;SDS011;55836;49.858;6.756;2023-08-07T13:10:59;2.00;;;1.50;;
68680;SDS011;55836;49.858;6.756;2023-08-07T13:13:26;1.97;;;1.67;;
68680;SDS011;55836;49.858;6.756;2023-08-07T13:15:53;3.13;;;1.70;;
68680;SDS011;55836;49.858;6.756;2023-08-07T13:18:19;1.83;;;1.67;;
68680;SDS011;55836;49.858;6.756;2023-08-07T13:20:45;3.37;;;2.00;;
68680;SDS011;55836;49.858;6.756;2023-08-07T13:23:11;2.27;;;1.57;;
68680;SDS011;55836;49.858;6.756;2023-08-07T13:25:37;3.63;;;1.57;;
68680;SDS011;55836;49.858;6.756;2023-08-07T13:28:03;1.93;;;1.50;;
68680;SDS011;55836;49.858;6.756;2023-08-07T13:30:32;3.03;;;1.70;;
68680;SDS011;55836;49.858;6.756;2023-08-07T13:32:58;3.77;;;2.10;;
68680;SDS011;55836;49.858;6.756;2023-08-07T13:35:24;2.10;;;1.30;;
68680;SDS011;55836;49.858;6.756;2023-08-07T13:37:50;1.83;;;1.50;;
68680;SDS011;55836;49.858;6.756;2023-08-07T13:40:16;2.60;;;1.77;;
68680;SDS011;55836;49.858;6.756;2023-08-07T13:42:43;2.77;;;1.47;;
68680;SDS011;55836;49.858;6.756;2023-08-07T13:45:09;2.17;;;1.80;;
68680;SDS011;55836;49.858;6.756;2023-08-07T13:47:35;2.03;;;1.80;;
68680;SDS011;55836;49.858;6.756;2023-08-07T13:50:02;4.07;;;1.80;;
68680;SDS011;55836;49.858;6.756;2023-08-07T13:52:29;3.50;;;1.60;;
68680;SDS011;55836;49.858;6.756;2023-08-07T13:54:57;2.37;;;1.70;;
68680;SDS011;55836;49.858;6.756;2023-08-07T13:57:23;1.73;;;1.53;;
68680;SDS011;55836;49.858;6.756;2023-08-07T13:59:49;2.10;;;1.90;;
68680;SDS011;55836;49.858;6.756;2023-08-07T14:02:15;2.30;;;1.43;;
68680;SDS011;55836;49.858;6.756;2023-08-07T14:04:41;2.70;;;1.60;;
68680;SDS011;55836;49.858;6.756;2023-08-07T14:07:10;2.87;;;1.47;;
68680;SDS011;55836;49.858;6.756;2023-08-07T14:09:36;4.10;;;2.00;;
68680;SDS011;55836;49.858;6.756;2023-08-07T14:12:02;2.07;;;1.70;;
68680;SDS011;55836;49.858;6.756;2023-08-07T14:14:28;2.20;;;1.50;;
68680;SDS011;55836;49.858;6.756;2023-08-07T14:16:54;3.57;;;1.70;;
68680;SDS011;55836;49.858;6.756;2023-08-07T14:19:25;2.90;;;1.97;;
68680;SDS011;55836;49.858;6.756;2023-08-07T14:21:51;2.77;;;1.53;;
68680;SDS011;55836;49.858;6.756;2023-08-07T14:24:17;2.70;;;1.50;;
68680;SDS011;55836;49.858;6.756;2023-08-07T14:26:43;2.73;;;1.50;;
68680;SDS011;55836;49.858;6.756;2023-08-07T14:29:09;5.00;;;1.87;;
68680;SDS011;55836;49.858;6.756;2023-08-07T14:31:35;2.73;;;1.97;;
68680;SDS011;55836;49.858;6.756;2023-08-07T14:34:01;3.73;;;1.90;;
68680;SDS011;55836;49.858;6.756;2023-08-07T14:36:30;3.87;;;1.70;;
68680;SDS011;55836;49.858;6.756;2023-08-07T14:38:56;2.17;;;1.63;;
68680;SDS011;55836;49.858;6.756;2023-08-07T14:41:22;2.67;;;2.00;;
68680;SDS011;55836;49.858;6.756;2023-08-07T14:43:48;2.10;;;1.77;;
68680;SDS011;55836;49.858;6.756;2023-08-07T14:46:15;1.67;;;1.53;;
68680;SDS011;55836;49.858;6.756;2023-08-07T14:48:43;4.17;;;1.67;;
68680;SDS011;55836;49.858;6.756;2023-08-07T14:51:09;2.00;;;1.40;;
68680;SDS011;55836;49.858;6.756;2023-08-07T14:53:35;2.60;;;1.43;;
68680;SDS011;55836;49.858;6.756;2023-08-07T14:56:01;3.17;;;1.80;;